Terminal Aerodrome Forecast
Issued by NWS

Current Version | Previous Version | Graphics & Text | Print | Product List | Glossary On
Versions: 1 2 3 4 5 6 7 8 9 10 11 12 13 14 15 16 17 18
000
FTUS41 KRNK 251720
TAFLWB
TAF
KLWB 251720Z 2518/2618 23008KT P6SM SCT060
     FM252300 25005KT P6SM BKN035
     FM260300 28003KT P6SM OVC025
     FM261100 29006KT P6SM SCT030
     FM261500 30012G20KT P6SM SKC=

USA.gov is the U.S. government's official web portal to all federal, state and local government web resources and services.